Time;durP1;ratioP1;P1;durP2;ratioP2;P2;SDS_P1;SDS_P2;PMS_P1;PMS_P2;Temp;Humidity;BMP_temperature;BMP_pressure;BME280_temperature;BME280_humidity;BME280_pressure;Samples;Min_cycle;Max_cycle;Signal;HPM_P1;HPM_P2
2023/04/21 00:01:00;;;;;;;40.40;36.92;;;;;;;9.67;75.57;97949.25;5017151;28;20030;-76
2023/04/21 00:03:27;;;;;;;40.13;36.47;;;;;;;9.62;75.38;97945.66;5012121;28;20037;-77
2023/04/21 00:05:55;;;;;;;40.20;36.85;;;;;;;9.61;75.40;97944.06;5004428;28;20021;-77
2023/04/21 00:08:20;;;;;;;39.30;35.95;;;;;;;9.63;75.83;97942.75;5008544;28;20034;-76
2023/04/21 00:10:46;;;;;;;40.80;37.30;;;;;;;9.59;75.89;97946.97;5029738;28;20032;-77
2023/04/21 00:13:11;;;;;;;39.47;36.03;;;;;;;9.55;75.19;97929.72;4995094;28;20036;-77
2023/04/21 00:15:36;;;;;;;36.95;33.70;;;;;;;9.65;74.93;97945.19;5006435;28;20028;-77
2023/04/21 00:18:02;;;;;;;39.53;36.25;;;;;;;9.58;75.42;97939.97;5009142;28;20151;-77
2023/04/21 00:20:29;;;;;;;39.17;35.88;;;;;;;9.60;75.42;97942.41;5013895;28;20082;-77
2023/04/21 00:22:58;;;;;;;41.42;37.92;;;;;;;9.50;76.07;97937.69;5026866;28;20040;-76
2023/04/21 00:25:24;;;;;;;38.25;34.80;;;;;;;9.55;75.46;97932.41;5022466;28;20104;-77
2023/04/21 00:27:49;;;;;;;39.83;36.42;;;;;;;9.52;75.60;97934.78;5019162;28;20226;-76
2023/04/21 00:30:15;;;;;;;41.28;37.78;;;;;;;9.45;76.19;97928.75;4989884;28;20021;-75
2023/04/21 00:32:40;;;;;;;40.13;36.83;;;;;;;9.47;75.23;97932.81;5007915;28;20037;-75
2023/04/21 00:35:06;;;;;;;40.88;37.55;;;;;;;9.39;76.46;97930.50;4996417;28;20422;-75
2023/04/21 00:37:32;;;;;;;40.58;37.28;;;;;;;9.28;76.04;97923.34;5010683;28;20029;-75
2023/04/21 00:39:57;;;;;;;46.15;42.22;;;;;;;8.87;77.66;97920.97;5014356;28;20065;-75
2023/04/21 00:42:23;;;;;;;45.83;42.08;;;;;;;9.07;76.93;97926.72;5026489;28;20514;-75
2023/04/21 00:44:49;;;;;;;45.78;42.08;;;;;;;9.11;76.47;97922.50;5001289;28;20335;-75
2023/04/21 00:47:14;;;;;;;44.30;41.05;;;;;;;9.09;76.60;97929.16;5026575;28;20117;-75
2023/04/21 00:49:41;;;;;;;49.13;45.15;;;;;;;8.98;77.38;97928.19;4986322;28;20023;-74
2023/04/21 00:52:07;;;;;;;49.10;45.35;;;;;;;9.06;76.68;97925.09;5015413;28;20040;-73
2023/04/21 00:54:34;;;;;;;48.25;44.67;;;;;;;8.63;78.61;97935.53;5001847;28;20483;-73
2023/04/21 00:57:00;;;;;;;51.97;48.13;;;;;;;8.70;78.14;97928.16;5014008;28;20111;-73
2023/04/21 00:59:26;;;;;;;56.00;52.08;;;;;;;8.81;77.87;97928.13;5018532;28;20035;-73
2023/04/21 01:01:52;;;;;;;55.83;51.83;;;;;;;8.60;79.12;97919.91;5026476;28;20487;-73
2023/04/21 01:04:17;;;;;;;56.67;52.70;;;;;;;8.34;78.61;97922.09;5014963;28;20415;-73
2023/04/21 01:06:43;;;;;;;57.10;53.05;;;;;;;8.59;78.36;97923.66;4998879;28;20136;-73
2023/04/21 01:09:08;;;;;;;57.10;53.05;;;;;;;8.59;78.64;97921.78;5012124;28;20078;-77
2023/04/21 01:11:35;;;;;;;54.28;50.28;;;;;;;8.83;78.38;97911.75;4987099;28;20035;-77
2023/04/21 01:14:00;;;;;;;50.65;47.15;;;;;;;8.51;77.93;97921.34;5009951;28;20025;-76
2023/04/21 01:16:26;;;;;;;54.17;50.35;;;;;;;8.37;79.04;97915.44;5015053;28;20037;-76
2023/04/21 01:18:52;;;;;;;56.72;52.63;;;;;;;8.49;77.96;97912.72;5009092;28;20013;-75
2023/04/21 01:21:19;;;;;;;54.58;50.78;;;;;;;8.60;78.29;97909.19;5003057;28;20119;-75
2023/04/21 01:23:44;;;;;;;56.58;52.58;;;;;;;8.52;78.69;97913.03;5018087;28;20044;-75
2023/04/21 01:26:10;;;;;;;54.45;50.38;;;;;;;8.77;78.29;97902.00;5011098;28;20034;-75
2023/04/21 01:28:35;;;;;;;55.92;51.90;;;;;;;8.77;78.41;97899.31;5045805;28;20017;-76
2023/04/21 01:31:02;;;;;;;50.97;47.20;;;;;;;8.89;77.92;97894.72;4986214;28;20029;-75
2023/04/21 01:33:28;;;;;;;51.70;47.78;;;;;;;8.85;78.03;97901.59;5014829;28;20028;-75
2023/04/21 01:35:56;;;;;;;51.53;47.50;;;;;;;8.79;77.73;97891.84;5027235;28;20521;-75
2023/04/21 01:38:21;;;;;;;48.00;44.47;;;;;;;8.76;77.89;97903.88;5011685;28;20056;-75
2023/04/21 01:40:49;;;;;;;51.33;47.72;;;;;;;8.78;78.58;97906.28;5005442;28;20041;-75
2023/04/21 01:43:16;;;;;;;49.17;45.58;;;;;;;8.70;78.74;97904.00;5020924;28;20025;-75
2023/04/21 01:45:41;;;;;;;49.67;45.85;;;;;;;8.69;78.41;97913.09;5018750;28;20478;-77
2023/04/21 01:48:07;;;;;;;53.15;49.15;;;;;;;8.50;79.22;97911.66;5005145;28;20025;-77
2023/04/21 01:50:32;;;;;;;53.22;49.40;;;;;;;8.40;79.59;97911.47;4998585;28;20033;-76
2023/04/21 01:52:57;;;;;;;47.78;44.05;;;;;;;8.95;77.25;97907.16;4995099;28;20123;-76
2023/04/21 01:55:24;;;;;;;51.28;47.30;;;;;;;8.60;78.63;97920.72;5014395;28;20040;-76
2023/04/21 01:57:49;;;;;;;52.38;48.63;;;;;;;8.65;78.47;97915.47;5011279;28;20052;-76
2023/04/21 02:00:15;;;;;;;49.42;45.67;;;;;;;8.75;77.59;97909.47;4989285;28;20095;-77
2023/04/21 02:02:40;;;;;;;54.40;50.40;;;;;;;8.41;79.11;97918.44;5050807;28;20473;-77
2023/04/21 02:05:06;;;;;;;51.83;47.95;;;;;;;8.83;77.63;97919.81;5021973;28;20368;-77
2023/04/21 02:07:31;;;;;;;51.17;47.00;;;;;;;8.65;77.85;97920.84;5003019;28;20025;-76
2023/04/21 02:09:57;;;;;;;52.13;48.33;;;;;;;8.47;79.04;97925.56;5002063;28;20053;-76
2023/04/21 02:12:22;;;;;;;52.08;47.97;;;;;;;8.62;78.41;97917.78;5015265;28;20033;-75
2023/04/21 02:14:48;;;;;;;50.90;47.28;;;;;;;8.73;77.81;97919.63;5025864;28;20035;-76
2023/04/21 02:17:14;;;;;;;53.88;49.78;;;;;;;8.57;78.74;97931.13;4997710;28;20036;-75
2023/04/21 02:19:39;;;;;;;55.42;51.65;;;;;;;8.40;79.42;97930.25;5005211;28;20140;-75
2023/04/21 02:22:07;;;;;;;55.28;51.53;;;;;;;8.33;79.42;97925.00;5013848;28;20025;-74
2023/04/21 02:24:33;;;;;;;53.03;49.33;;;;;;;8.80;78.73;97917.59;5005642;28;20048;-75
2023/04/21 02:27:00;;;;;;;47.53;43.88;;;;;;;8.83;77.57;97911.75;5003708;28;20060;-75
2023/04/21 02:29:27;;;;;;;44.70;41.10;;;;;;;8.88;77.05;97922.59;5019276;28;20029;-75
2023/04/21 02:31:53;;;;;;;46.17;42.42;;;;;;;8.73;77.85;97914.25;5016932;28;20031;-75
2023/04/21 02:34:19;;;;;;;46.20;42.58;;;;;;;8.86;77.35;97930.09;5000387;28;20437;-74
2023/04/21 02:36:45;;;;;;;48.08;44.55;;;;;;;8.71;79.03;97933.28;5015179;28;20025;-74
2023/04/21 02:39:11;;;;;;;48.42;44.83;;;;;;;8.81;78.44;97928.13;5013658;28;20025;-74
2023/04/21 02:41:38;;;;;;;50.53;46.78;;;;;;;8.70;78.29;97930.84;4981346;28;20103;-74
2023/04/21 02:44:03;;;;;;;47.92;44.42;;;;;;;8.84;77.99;97924.16;4997308;28;20029;-74
2023/04/21 02:46:29;;;;;;;47.95;44.38;;;;;;;8.91;77.93;97927.50;5013938;28;20026;-74
2023/04/21 02:48:57;;;;;;;46.33;42.63;;;;;;;8.96;78.02;97923.03;5013735;28;20030;-75
2023/04/21 02:51:22;;;;;;;46.17;42.40;;;;;;;9.02;77.77;97929.31;5009965;28;20559;-74
2023/04/21 02:53:48;;;;;;;44.35;40.90;;;;;;;9.01;77.15;97922.31;5040504;28;20033;-75
2023/04/21 02:56:14;;;;;;;46.70;42.88;;;;;;;8.94;77.73;97921.63;4998887;28;20064;-75
2023/04/21 02:58:39;;;;;;;45.00;41.60;;;;;;;9.00;77.18;97915.31;5000612;28;20170;-75
2023/04/21 03:01:05;;;;;;;44.28;40.60;;;;;;;9.01;77.86;97916.94;5032122;28;20029;-76
2023/04/21 03:03:31;;;;;;;43.92;40.25;;;;;;;8.98;77.65;97917.44;5005138;28;20044;-76
2023/04/21 03:05:57;;;;;;;47.38;43.67;;;;;;;9.06;77.13;97922.41;5002405;28;20180;-75
2023/04/21 03:08:22;;;;;;;44.15;40.53;;;;;;;9.11;77.07;97919.81;5022001;28;20037;-75
2023/04/21 03:10:48;;;;;;;44.97;41.45;;;;;;;8.99;77.73;97925.25;5031699;28;20066;-74
2023/04/21 03:13:13;;;;;;;46.25;42.45;;;;;;;9.09;76.88;97913.03;5021466;28;20052;-74
2023/04/21 03:15:38;;;;;;;44.85;41.13;;;;;;;9.04;77.50;97905.72;4998594;28;20059;-74
2023/04/21 03:18:04;;;;;;;46.75;43.03;;;;;;;9.03;77.90;97914.84;4992396;28;20066;-74
2023/04/21 03:20:30;;;;;;;44.85;41.38;;;;;;;9.09;77.35;97897.75;5027933;28;20116;-74
2023/04/21 03:22:55;;;;;;;43.75;40.17;;;;;;;9.09;76.93;97907.69;5005183;28;20046;-75
2023/04/21 03:25:20;;;;;;;45.40;41.60;;;;;;;9.05;76.76;97893.94;5009505;28;20033;-75
2023/04/21 03:27:46;;;;;;;42.80;39.13;;;;;;;9.10;77.00;97899.41;5044238;28;20049;-75
2023/04/21 03:30:11;;;;;;;44.55;40.92;;;;;;;9.07;76.98;97899.03;5004025;28;20032;-75
2023/04/21 03:32:37;;;;;;;45.85;41.97;;;;;;;9.15;77.01;97895.97;5020267;28;20674;-76
2023/04/21 03:35:02;;;;;;;42.60;38.67;;;;;;;9.22;76.56;97896.63;5006043;28;20033;-76
2023/04/21 03:37:27;;;;;;;43.75;39.97;;;;;;;9.13;77.08;97898.88;4988973;28;20163;-77
2023/04/21 03:39:53;;;;;;;43.60;39.63;;;;;;;9.15;77.20;97907.50;5024858;28;20712;-77
2023/04/21 03:42:19;;;;;;;44.25;40.30;;;;;;;9.17;76.85;97905.41;4992097;28;20045;-75
2023/04/21 03:44:44;;;;;;;42.58;39.13;;;;;;;9.16;77.14;97903.78;5006883;28;20026;-76
2023/04/21 03:47:09;;;;;;;44.58;40.97;;;;;;;9.07;77.07;97899.88;5012611;28;20407;-75
2023/04/21 03:49:35;;;;;;;46.08;42.28;;;;;;;9.10;76.42;97907.44;4997431;28;20487;-74
2023/04/21 03:52:00;;;;;;;46.38;42.35;;;;;;;9.07;77.04;97905.25;5007827;28;20041;-76
2023/04/21 03:54:26;;;;;;;45.03;41.35;;;;;;;9.12;76.99;97913.41;5007343;28;20029;-76
2023/04/21 03:56:51;;;;;;;43.67;40.05;;;;;;;9.14;76.68;97916.66;5030080;28;20043;-76
2023/04/21 03:59:16;;;;;;;45.83;41.88;;;;;;;9.07;76.93;97909.78;5013230;28;20033;-76
2023/04/21 04:01:42;;;;;;;47.17;43.45;;;;;;;9.11;77.05;97914.44;5024636;28;20116;-75
2023/04/21 04:04:07;;;;;;;47.83;43.75;;;;;;;9.10;77.58;97918.19;5020632;28;20098;-75
2023/04/21 04:06:34;;;;;;;44.88;41.10;;;;;;;9.11;76.48;97911.75;5022992;28;20560;-75
2023/04/21 04:09:03;;;;;;;46.97;42.97;;;;;;;9.14;77.25;97922.03;5023708;28;20017;-75
2023/04/21 04:11:28;;;;;;;46.17;42.25;;;;;;;9.09;77.15;97919.25;5020155;28;20054;-75
2023/04/21 04:13:54;;;;;;;47.83;43.92;;;;;;;8.95;77.53;97917.91;5006306;28;20483;-75
2023/04/21 04:16:19;;;;;;;50.65;46.38;;;;;;;9.08;77.28;97922.19;5036316;28;20086;-75
2023/04/21 04:18:45;;;;;;;51.17;46.75;;;;;;;9.04;77.60;97916.47;5025419;28;20104;-75
2023/04/21 04:21:10;;;;;;;50.47;46.28;;;;;;;8.99;77.41;97902.94;5035657;28;20095;-76
2023/04/21 04:23:36;;;;;;;52.20;47.85;;;;;;;8.98;77.79;97909.38;5023064;28;20121;-74
2023/04/21 04:26:04;;;;;;;51.30;47.15;;;;;;;9.05;77.52;97918.09;5035427;28;20037;-73
2023/04/21 04:28:30;;;;;;;50.47;46.35;;;;;;;9.07;77.01;97915.16;5040870;28;20057;-75
2023/04/21 04:30:55;;;;;;;53.88;49.60;;;;;;;8.91;77.61;97911.41;5012760;28;20091;-75
2023/04/21 04:33:20;;;;;;;51.00;47.00;;;;;;;9.05;77.17;97913.53;5045758;28;20021;-75
2023/04/21 04:35:46;;;;;;;52.30;48.13;;;;;;;9.02;76.51;97923.94;5012997;28;20457;-75
2023/04/21 04:38:13;;;;;;;52.08;48.08;;;;;;;9.03;77.03;97925.59;5028743;28;20021;-75
2023/04/21 04:40:39;;;;;;;49.95;45.85;;;;;;;9.11;76.65;97917.13;5006115;28;20033;-75
2023/04/21 04:43:04;;;;;;;50.97;46.90;;;;;;;9.07;77.01;97925.91;5040072;28;20029;-75
2023/04/21 04:45:31;;;;;;;49.72;45.72;;;;;;;9.16;76.65;97919.91;5012561;28;20043;-74
2023/04/21 04:47:57;;;;;;;47.63;43.55;;;;;;;9.08;76.72;97917.59;4999568;28;20036;-76
2023/04/21 04:50:23;;;;;;;50.97;46.90;;;;;;;9.18;76.73;97923.16;5035275;28;20025;-76
2023/04/21 04:52:48;;;;;;;47.28;43.15;;;;;;;9.17;77.22;97915.34;5022637;28;20025;-75
2023/04/21 04:55:14;;;;;;;48.17;44.17;;;;;;;9.25;76.67;97921.13;5018195;28;20053;-77
2023/04/21 04:57:40;;;;;;;48.53;44.72;;;;;;;9.32;76.94;97924.47;5015504;28;20026;-77
2023/04/21 05:00:10;;;;;;;47.65;43.85;;;;;;;9.29;76.27;97914.22;5012636;28;20465;-78
2023/04/21 05:02:35;;;;;;;47.08;43.10;;;;;;;9.30;76.07;97915.03;4968126;28;20521;-77
2023/04/21 05:05:01;;;;;;;45.80;42.03;;;;;;;9.26;76.70;97912.03;5011905;28;20057;-75
2023/04/21 05:07:26;;;;;;;45.15;41.50;;;;;;;9.36;76.23;97917.56;5046469;28;20033;-76
2023/04/21 05:09:53;;;;;;;47.15;43.28;;;;;;;9.38;75.76;97915.44;5005299;28;20027;-76
2023/04/21 05:12:18;;;;;;;42.80;39.35;;;;;;;9.40;75.86;97931.34;5022196;28;20096;-77
2023/04/21 05:14:44;;;;;;;42.45;39.03;;;;;;;9.47;75.67;97932.81;5011716;28;20034;-77
2023/04/21 05:17:09;;;;;;;41.00;37.47;;;;;;;9.46;75.73;97923.09;5028066;28;20047;-77
2023/04/21 05:19:36;;;;;;;41.67;37.88;;;;;;;9.38;75.93;97923.50;5005311;28;20013;-76
2023/04/21 05:22:01;;;;;;;39.90;36.30;;;;;;;9.53;75.11;97931.81;5005957;28;20450;-76
2023/04/21 05:24:27;;;;;;;39.20;35.50;;;;;;;9.56;75.48;97930.53;5018260;28;20032;-79
2023/04/21 05:26:52;;;;;;;39.35;35.92;;;;;;;9.65;74.95;97940.63;5022380;28;20076;-77
2023/04/21 05:29:18;;;;;;;38.97;35.42;;;;;;;9.60;74.26;97937.03;5011376;28;20072;-77
2023/04/21 05:31:43;;;;;;;35.78;32.80;;;;;;;9.71;74.51;97936.94;5036394;28;20116;-77
2023/04/21 05:34:09;;;;;;;37.63;34.17;;;;;;;9.77;74.65;97942.41;5019548;28;20021;-76
2023/04/21 05:36:34;;;;;;;39.17;35.65;;;;;;;9.68;74.45;97940.13;5023344;28;20530;-77
2023/04/21 05:38:59;;;;;;;35.85;32.67;;;;;;;9.77;73.98;97937.03;5011998;28;20017;-74
2023/04/21 05:41:25;;;;;;;36.70;33.33;;;;;;;9.90;74.23;97947.44;5010523;28;20045;-77
2023/04/21 05:43:50;;;;;;;35.47;32.15;;;;;;;10.04;73.47;97940.66;5003510;28;20032;-77
2023/04/21 05:46:16;;;;;;;33.70;30.50;;;;;;;10.23;72.73;97944.75;5022903;28;20041;-77
2023/04/21 05:48:41;;;;;;;32.88;29.55;;;;;;;10.26;72.74;97949.63;5016396;28;20020;-74
2023/04/21 05:51:11;;;;;;;29.65;26.95;;;;;;;10.34;72.50;97943.81;5040391;28;20061;-76
2023/04/21 05:53:39;;;;;;;30.38;27.38;;;;;;;10.56;72.07;97947.34;5010918;28;20034;-76
2023/04/21 05:56:05;;;;;;;27.45;24.90;;;;;;;10.62;71.49;97940.94;5029447;28;20453;-76
2023/04/21 05:58:32;;;;;;;28.45;25.60;;;;;;;10.59;71.71;97946.03;5017725;28;20111;-75
2023/04/21 06:00:57;;;;;;;27.55;24.65;;;;;;;10.90;70.91;97948.00;5021357;28;20041;-76
2023/04/21 06:03:22;;;;;;;28.80;23.83;;;;;;;10.87;71.27;97943.97;5051250;28;20032;-76
2023/04/21 06:05:53;;;;;;;27.95;22.45;;;;;;;10.83;70.14;97940.13;5020730;28;20376;-75
2023/04/21 06:08:18;;;;;;;24.50;21.92;;;;;;;10.91;70.27;97937.00;5034113;28;20490;-76
2023/04/21 06:10:44;;;;;;;24.27;21.75;;;;;;;10.96;70.15;97942.44;5020636;28;20130;-75
2023/04/21 06:13:09;;;;;;;24.45;21.73;;;;;;;10.97;70.32;97930.59;5044141;28;20036;-76
2023/04/21 06:15:35;;;;;;;25.23;21.13;;;;;;;10.91;70.13;97928.91;5026994;28;20031;-76
2023/04/21 06:18:00;;;;;;;24.52;21.70;;;;;;;11.17;69.81;97927.31;5021133;28;20037;-76
2023/04/21 06:20:26;;;;;;;22.75;20.38;;;;;;;10.93;70.19;97921.38;5003964;28;20066;-76
2023/04/21 06:22:51;;;;;;;21.98;19.55;;;;;;;11.09;69.35;97915.09;5026921;28;20072;-76
2023/04/21 06:25:16;;;;;;;30.35;22.30;;;;;;;11.24;69.54;97927.09;5010702;28;20028;-76
2023/04/21 06:27:44;;;;;;;23.85;20.58;;;;;;;11.11;69.19;97929.13;5020338;28;20039;-76
2023/04/21 06:30:10;;;;;;;22.10;19.67;;;;;;;11.41;69.33;97930.50;5038518;28;20475;-76
2023/04/21 06:32:35;;;;;;;21.58;19.25;;;;;;;11.29;68.94;97932.53;5044824;28;20090;-75
2023/04/21 06:35:00;;;;;;;22.63;19.30;;;;;;;11.59;68.27;97930.09;5036919;28;20021;-75
2023/04/21 06:37:26;;;;;;;20.67;18.45;;;;;;;11.61;67.79;97920.69;5010636;28;20120;-75
2023/04/21 06:39:51;;;;;;;22.58;18.80;;;;;;;11.67;68.58;97921.53;5026868;28;20021;-76
2023/04/21 06:42:17;;;;;;;21.25;17.80;;;;;;;11.65;68.82;97923.66;5037747;28;20064;-75
2023/04/21 06:44:42;;;;;;;21.73;18.23;;;;;;;11.81;68.45;97928.16;5020985;28;20033;-75
2023/04/21 06:47:08;;;;;;;21.90;17.95;;;;;;;11.88;67.19;97936.84;5026812;28;20033;-75
2023/04/21 06:49:33;;;;;;;21.20;16.92;;;;;;;11.91;66.70;97936.31;5010196;28;20044;-75
2023/04/21 06:51:58;;;;;;;20.60;17.65;;;;;;;11.95;66.76;97940.13;5000739;28;20025;-75
2023/04/21 06:54:24;;;;;;;20.40;16.38;;;;;;;12.01;65.96;97939.09;5039845;28;20033;-75
2023/04/21 06:56:50;;;;;;;20.60;15.88;;;;;;;11.96;66.18;97941.75;5068348;28;20044;-75
2023/04/21 06:59:15;;;;;;;20.33;16.45;;;;;;;12.09;65.81;97935.91;5024942;28;20025;-75
2023/04/21 07:01:41;;;;;;;20.55;16.10;;;;;;;12.10;66.13;97937.53;5014409;28;20099;-75
2023/04/21 07:04:06;;;;;;;20.80;15.60;;;;;;;12.14;65.73;97935.13;5013400;28;20040;-75
2023/04/21 07:06:32;;;;;;;19.30;16.30;;;;;;;12.09;66.32;97935.91;5042021;28;20036;-75
2023/04/21 07:08:57;;;;;;;19.63;15.70;;;;;;;12.14;65.88;97933.22;5024970;28;20013;-75
2023/04/21 07:11:22;;;;;;;18.98;15.43;;;;;;;12.22;65.06;97935.47;5014451;28;20037;-75
2023/04/21 07:13:48;;;;;;;18.25;14.50;;;;;;;12.18;65.36;97934.34;5012828;28;20033;-75
2023/04/21 07:16:13;;;;;;;19.02;15.02;;;;;;;12.19;64.93;97941.38;5004123;28;20044;-75
2023/04/21 07:18:40;;;;;;;20.77;15.23;;;;;;;12.30;65.35;97937.66;5042698;28;20037;-74
2023/04/21 07:21:06;;;;;;;20.48;15.85;;;;;;;12.52;64.77;97939.38;5014053;28;20037;-74
2023/04/21 07:23:31;;;;;;;21.70;16.17;;;;;;;12.54;64.58;97931.81;5028830;28;20040;-75
2023/04/21 07:25:56;;;;;;;21.10;15.45;;;;;;;12.55;64.80;97933.47;5019788;28;20028;-74
2023/04/21 07:28:22;;;;;;;21.38;16.30;;;;;;;12.64;64.95;97931.88;5042891;28;20457;-76
2023/04/21 07:30:47;;;;;;;18.52;14.57;;;;;;;12.61;64.12;97933.22;5030294;28;20037;-75
2023/04/21 07:33:13;;;;;;;18.75;14.65;;;;;;;12.58;64.25;97938.34;5016705;28;20033;-75
2023/04/21 07:35:38;;;;;;;20.45;15.30;;;;;;;12.76;64.09;97940.59;5048177;28;20407;-76
2023/04/21 07:38:03;;;;;;;19.65;14.82;;;;;;;12.96;63.11;97946.03;5011700;28;20096;-76
2023/04/21 07:40:30;;;;;;;16.88;13.80;;;;;;;12.86;62.69;97946.03;5023547;28;20094;-76
2023/04/21 07:42:55;;;;;;;21.50;14.70;;;;;;;12.97;62.74;97947.69;5009454;28;20025;-76
2023/04/21 07:45:20;;;;;;;20.25;14.48;;;;;;;13.19;62.19;97945.59;4997830;28;20087;-76
2023/04/21 07:47:46;;;;;;;18.48;14.77;;;;;;;13.21;62.77;97943.44;5045020;28;20113;-76
2023/04/21 07:50:11;;;;;;;18.17;13.45;;;;;;;13.44;61.75;97952.97;5023222;28;20076;-76
2023/04/21 07:52:36;;;;;;;17.60;14.73;;;;;;;13.15;62.65;97947.22;5009421;28;20068;-75
2023/04/21 07:55:02;;;;;;;18.48;14.57;;;;;;;13.15;62.76;97944.53;5056095;28;20028;-75
2023/04/21 07:57:28;;;;;;;19.83;14.50;;;;;;;13.13;63.39;97936.69;5044837;28;20526;-74
2023/04/21 07:59:53;;;;;;;23.05;14.77;;;;;;;13.44;62.39;97937.53;5035670;28;20035;-74
2023/04/21 08:02:18;;;;;;;17.52;14.25;;;;;;;13.34;62.60;97942.94;5046312;28;20035;-74
2023/04/21 08:04:44;;;;;;;17.00;12.48;;;;;;;13.80;61.18;97947.31;5049222;28;20044;-75
2023/04/21 08:07:12;;;;;;;17.55;12.63;;;;;;;13.54;62.63;97939.44;5015544;28;20491;-74
2023/04/21 08:09:37;;;;;;;15.40;12.43;;;;;;;13.69;62.66;97942.97;5018389;28;20554;-74
2023/04/21 08:12:03;;;;;;;84.90;21.77;;;;;;;13.78;62.92;97933.22;5024595;28;20138;-74
2023/04/21 08:14:28;;;;;;;17.35;11.77;;;;;;;14.22;60.78;97935.34;5029219;28;20032;-75
2023/04/21 08:16:54;;;;;;;16.38;12.85;;;;;;;14.05;60.78;97937.56;5011177;28;20040;-75
2023/04/21 08:19:19;;;;;;;15.73;12.73;;;;;;;14.08;61.21;97936.97;5014509;28;20128;-75
2023/04/21 08:21:44;;;;;;;18.08;12.38;;;;;;;13.88;61.04;97931.59;5033819;28;20025;-75
2023/04/21 08:24:10;;;;;;;13.25;10.30;;;;;;;13.83;58.77;97930.53;5003785;28;20044;-75
2023/04/21 08:26:35;;;;;;;14.75;10.95;;;;;;;14.09;59.43;97917.78;5053625;28;20128;-74
2023/04/21 08:29:01;;;;;;;16.30;10.90;;;;;;;14.10;59.99;97924.78;5035651;28;20040;-75
2023/04/21 08:31:26;;;;;;;15.38;10.77;;;;;;;14.42;58.03;97932.63;5008739;28;20025;-75
2023/04/21 08:33:52;;;;;;;12.80;10.02;;;;;;;14.45;57.50;97921.22;5003198;28;20116;-75
2023/04/21 08:36:19;;;;;;;13.60;10.35;;;;;;;14.49;58.50;97916.91;5024991;28;20478;-75
2023/04/21 08:38:44;;;;;;;14.57;10.00;;;;;;;14.18;57.69;97916.13;4984268;28;20503;-75
2023/04/21 08:41:10;;;;;;;10.95;9.70;;;;;;;14.65;57.16;97913.03;4993902;28;20032;-75
2023/04/21 08:43:35;;;;;;;16.10;10.60;;;;;;;14.47;57.50;97916.34;5002111;28;20513;-75
2023/04/21 08:46:05;;;;;;;12.43;9.77;;;;;;;14.51;57.39;97901.16;5026539;28;20032;-75
2023/04/21 08:48:33;;;;;;;14.45;9.68;;;;;;;14.64;57.69;97908.69;5005626;28;20076;-75
2023/04/21 08:50:58;;;;;;;10.93;9.00;;;;;;;14.86;56.70;97906.44;5018917;28;20017;-76
2023/04/21 08:53:24;;;;;;;11.38;9.40;;;;;;;14.67;54.86;97910.84;5005496;28;20482;-75
2023/04/21 08:55:54;;;;;;;11.05;8.88;;;;;;;14.92;55.81;97916.16;5064400;28;20028;-75
2023/04/21 08:58:21;;;;;;;12.95;9.35;;;;;;;15.12;55.73;97915.25;5036638;28;20041;-75
2023/04/21 09:00:47;;;;;;;11.95;9.52;;;;;;;15.19;55.76;97911.13;5006668;28;20072;-75
2023/04/21 09:03:12;;;;;;;10.20;8.63;;;;;;;15.33;55.85;97905.06;5039070;28;20045;-76
2023/04/21 09:05:38;;;;;;;12.25;9.27;;;;;;;15.47;54.72;97900.66;5035132;28;20025;-75
2023/04/21 09:08:08;;;;;;;12.38;9.07;;;;;;;15.42;55.21;97904.19;5021654;28;20033;-75
2023/04/21 09:10:42;;;;;;;14.15;9.75;;;;;;;15.45;54.39;97908.28;5005984;28;20029;-75
2023/04/21 09:13:09;;;;;;;11.88;9.10;;;;;;;15.66;56.31;97901.59;5034763;28;20041;-75
2023/04/21 09:15:41;;;;;;;10.75;8.90;;;;;;;15.86;54.42;97901.44;5001676;28;20032;-75
2023/04/21 09:18:12;;;;;;;11.70;8.65;;;;;;;15.87;55.26;97905.75;5023242;28;20029;-75
2023/04/21 09:20:38;;;;;;;11.65;8.82;;;;;;;15.95;52.93;97894.28;5021629;28;20040;-75
2023/04/21 09:23:04;;;;;;;20.42;9.55;;;;;;;15.99;54.07;97897.22;5009508;28;20038;-75
2023/04/21 09:25:31;;;;;;;10.82;8.75;;;;;;;15.87;54.05;97892.97;5030300;28;20037;-76
2023/04/21 09:27:56;;;;;;;11.52;7.85;;;;;;;16.24;53.82;97895.06;5026076;28;20041;-75
2023/04/21 09:30:22;;;;;;;26.02;8.75;;;;;;;16.17;54.97;97910.91;5030256;28;20040;-75
2023/04/21 09:32:48;;;;;;;9.45;7.80;;;;;;;16.00;52.18;97885.25;5009343;28;20122;-75
2023/04/21 09:35:14;;;;;;;9.10;6.95;;;;;;;16.23;52.75;97898.88;5030142;28;20044;-75
2023/04/21 09:37:42;;;;;;;10.63;7.95;;;;;;;16.50;53.86;97892.88;5052220;28;20047;-75
2023/04/21 09:40:12;;;;;;;11.90;8.27;;;;;;;16.51;53.08;97895.34;5021132;28;20041;-76
2023/04/21 09:42:37;;;;;;;9.15;8.25;;;;;;;16.51;52.85;97887.19;5017590;28;20036;-75
2023/04/21 09:45:03;;;;;;;10.80;8.50;;;;;;;16.51;51.75;97895.34;5004686;28;20029;-75
2023/04/21 09:47:30;;;;;;;10.82;8.50;;;;;;;16.49;52.89;97892.06;5024819;28;20124;-75
2023/04/21 09:49:56;;;;;;;10.90;8.70;;;;;;;16.54;53.51;97883.91;5011638;28;20091;-75
2023/04/21 09:52:23;;;;;;;12.07;8.60;;;;;;;16.42;52.51;97886.19;5007381;28;20098;-74
2023/04/21 09:54:51;;;;;;;12.60;8.02;;;;;;;16.49;50.85;97892.06;5002814;28;20037;-75
2023/04/21 09:57:24;;;;;;;10.20;7.35;;;;;;;16.76;51.55;97890.69;5041006;28;20021;-75
2023/04/21 09:59:54;;;;;;;12.57;7.53;;;;;;;16.91;50.02;97882.34;5021012;28;20040;-75
2023/04/21 10:02:24;;;;;;;10.40;7.53;;;;;;;17.17;53.00;97886.31;5033259;28;20048;-74
2023/04/21 10:04:49;;;;;;;9.38;6.78;;;;;;;17.17;52.65;97878.16;5020440;28;20041;-75
2023/04/21 10:07:15;;;;;;;8.23;7.00;;;;;;;17.33;51.65;97885.00;5051810;28;20037;-75
2023/04/21 10:09:50;;;;;;;7.95;6.22;;;;;;;17.51;49.61;97881.47;5020858;28;20442;-74
2023/04/21 10:12:16;;;;;;;10.77;6.70;;;;;;;17.27;48.56;97869.81;5004517;28;20033;-75
2023/04/21 10:14:42;;;;;;;9.77;7.63;;;;;;;17.29;49.05;97871.16;5010696;28;20033;-75
2023/04/21 10:17:09;;;;;;;8.07;7.18;;;;;;;17.31;49.42;97867.34;5017589;28;20504;-75
2023/04/21 10:19:38;;;;;;;9.93;6.53;;;;;;;17.58;48.35;97871.00;5004209;28;20025;-75
2023/04/21 10:22:08;;;;;;;8.95;7.07;;;;;;;17.72;49.73;97869.13;5004215;28;20128;-75
2023/04/21 10:24:38;;;;;;;8.20;6.45;;;;;;;17.78;49.89;97867.94;5009366;28;20044;-75
2023/04/21 10:27:04;;;;;;;8.82;6.65;;;;;;;17.98;50.49;97865.97;5010615;28;20533;-75
2023/04/21 10:29:33;;;;;;;9.40;6.65;;;;;;;17.92;48.70;97866.06;5021785;28;20024;-75
2023/04/21 10:31:58;;;;;;;6.68;5.60;;;;;;;17.93;48.31;97866.88;5033279;28;20387;-75
2023/04/21 10:34:24;;;;;;;9.10;5.93;;;;;;;18.02;48.52;97864.28;5040660;28;20027;-75
2023/04/21 10:36:55;;;;;;;10.05;6.47;;;;;;;18.00;48.80;97855.56;5046269;28;20453;-75
2023/04/21 10:39:51;;;;;;;8.20;6.22;;;;;;;18.13;46.71;97850.16;5024407;28;20069;-75
2023/04/21 10:42:18;;;;;;;7.68;6.57;;;;;;;17.92;47.51;97855.16;5018542;28;20631;-75
2023/04/21 10:44:50;;;;;;;7.65;5.75;;;;;;;17.92;46.77;97843.47;5010532;28;20104;-75
2023/04/21 10:47:30;;;;;;;6.85;5.85;;;;;;;17.84;47.24;97847.69;5021000;28;20037;-75
2023/04/21 10:49:56;;;;;;;14.38;6.05;;;;;;;18.24;46.72;97840.69;5020336;28;20068;-75
2023/04/21 10:52:31;;;;;;;9.00;5.82;;;;;;;18.06;45.52;97843.50;5007479;28;20021;-75
2023/04/21 10:55:05;;;;;;;6.82;5.28;;;;;;;18.04;45.28;97845.72;5010971;28;20038;-75
2023/04/21 10:57:32;;;;;;;7.88;5.07;;;;;;;17.97;45.88;97831.66;5013907;28;20635;-75
2023/04/21 10:59:58;;;;;;;5.70;5.05;;;;;;;18.69;45.15;97836.25;5044628;28;20471;-75
2023/04/21 11:02:23;;;;;;;6.80;4.32;;;;;;;18.81;44.64;97822.88;5026454;28;20086;-75
2023/04/21 11:04:52;;;;;;;8.30;4.70;;;;;;;19.08;45.23;97832.91;5020029;28;20029;-74
2023/04/21 11:07:22;;;;;;;6.75;4.68;;;;;;;18.72;44.36;97834.84;5033180;28;20121;-75
2023/04/21 11:09:56;;;;;;;6.15;4.38;;;;;;;18.80;42.10;97820.44;5020079;28;20823;-75
2023/04/21 11:12:21;;;;;;;6.13;4.20;;;;;;;19.00;43.03;97822.72;5033424;28;20095;-75
2023/04/21 11:14:47;;;;;;;5.18;4.00;;;;;;;19.17;43.14;97815.50;5033048;28;20025;-75
2023/04/21 11:17:16;;;;;;;5.68;4.07;;;;;;;19.13;41.85;97819.97;5038431;28;20395;-75
2023/04/21 11:19:46;;;;;;;4.70;4.10;;;;;;;19.02;43.45;97815.84;5019575;28;20024;-75